sensor_id;sensor_type;location;lat;lon;timestamp;P1;durP1;ratioP1;P2;durP2;ratioP2
71048;SDS011;58704;53.358;-6.238;2023-05-24T00:00:24;13.40;;;3.70;;
71048;SDS011;58704;53.358;-6.238;2023-05-24T00:02:50;12.93;;;3.60;;
71048;SDS011;58704;53.358;-6.238;2023-05-24T00:05:15;10.63;;;3.70;;
71048;SDS011;58704;53.358;-6.238;2023-05-24T00:07:42;10.88;;;4.00;;
71048;SDS011;58704;53.358;-6.238;2023-05-24T00:10:08;8.17;;;3.13;;
71048;SDS011;58704;53.358;-6.238;2023-05-24T00:12:34;9.90;;;3.57;;
71048;SDS011;58704;53.358;-6.238;2023-05-24T00:15:00;9.50;;;3.53;;
71048;SDS011;58704;53.358;-6.238;2023-05-24T00:17:25;17.43;;;4.00;;
71048;SDS011;58704;53.358;-6.238;2023-05-24T00:19:51;10.43;;;3.58;;
71048;SDS011;58704;53.358;-6.238;2023-05-24T00:22:17;9.67;;;3.87;;
71048;SDS011;58704;53.358;-6.238;2023-05-24T00:24:45;8.60;;;3.30;;
71048;SDS011;58704;53.358;-6.238;2023-05-24T00:27:12;8.23;;;3.28;;
71048;SDS011;58704;53.358;-6.238;2023-05-24T00:29:38;7.55;;;3.50;;
71048;SDS011;58704;53.358;-6.238;2023-05-24T00:32:03;7.43;;;3.70;;
71048;SDS011;58704;53.358;-6.238;2023-05-24T00:34:29;10.32;;;3.28;;
71048;SDS011;58704;53.358;-6.238;2023-05-24T00:36:54;10.03;;;3.50;;
71048;SDS011;58704;53.358;-6.238;2023-05-24T00:39:21;8.00;;;3.50;;
71048;SDS011;58704;53.358;-6.238;2023-05-24T00:41:47;12.43;;;3.30;;
71048;SDS011;58704;53.358;-6.238;2023-05-24T00:44:13;14.77;;;3.78;;
71048;SDS011;58704;53.358;-6.238;2023-05-24T00:46:38;11.30;;;3.43;;
71048;SDS011;58704;53.358;-6.238;2023-05-24T00:49:04;12.80;;;3.90;;
71048;SDS011;58704;53.358;-6.238;2023-05-24T00:51:29;9.73;;;3.40;;
71048;SDS011;58704;53.358;-6.238;2023-05-24T00:53:56;9.63;;;3.47;;
71048;SDS011;58704;53.358;-6.238;2023-05-24T00:56:22;8.45;;;3.50;;
71048;SDS011;58704;53.358;-6.238;2023-05-24T00:58:47;10.37;;;3.57;;
71048;SDS011;58704;53.358;-6.238;2023-05-24T01:01:14;12.15;;;3.40;;
71048;SDS011;58704;53.358;-6.238;2023-05-24T01:03:40;9.50;;;3.30;;
71048;SDS011;58704;53.358;-6.238;2023-05-24T01:06:06;7.57;;;3.60;;
71048;SDS011;58704;53.358;-6.238;2023-05-24T01:11:03;11.23;;;3.57;;
71048;SDS011;58704;53.358;-6.238;2023-05-24T01:14:11;8.30;;;3.67;;
71048;SDS011;58704;53.358;-6.238;2023-05-24T01:16:49;9.60;;;3.58;;
71048;SDS011;58704;53.358;-6.238;2023-05-24T01:27:29;8.93;;;3.38;;
71048;SDS011;58704;53.358;-6.238;2023-05-24T01:29:56;11.45;;;4.47;;
71048;SDS011;58704;53.358;-6.238;2023-05-24T01:32:22;10.02;;;3.95;;
71048;SDS011;58704;53.358;-6.238;2023-05-24T01:34:47;12.43;;;4.33;;
71048;SDS011;58704;53.358;-6.238;2023-05-24T01:37:13;17.27;;;4.07;;
71048;SDS011;58704;53.358;-6.238;2023-05-24T01:39:38;12.37;;;3.90;;
71048;SDS011;58704;53.358;-6.238;2023-05-24T01:47:36;9.55;;;3.80;;
71048;SDS011;58704;53.358;-6.238;2023-05-24T01:50:10;7.95;;;3.65;;
71048;SDS011;58704;53.358;-6.238;2023-05-24T01:52:39;8.90;;;4.03;;
71048;SDS011;58704;53.358;-6.238;2023-05-24T01:55:07;10.47;;;3.83;;
71048;SDS011;58704;53.358;-6.238;2023-05-24T01:57:33;10.10;;;3.92;;
71048;SDS011;58704;53.358;-6.238;2023-05-24T01:59:59;7.53;;;3.80;;
71048;SDS011;58704;53.358;-6.238;2023-05-24T02:02:26;9.82;;;3.85;;
71048;SDS011;58704;53.358;-6.238;2023-05-24T02:04:51;8.83;;;3.93;;
71048;SDS011;58704;53.358;-6.238;2023-05-24T02:07:17;10.70;;;4.10;;
71048;SDS011;58704;53.358;-6.238;2023-05-24T02:09:43;10.68;;;4.03;;
71048;SDS011;58704;53.358;-6.238;2023-05-24T02:12:08;13.50;;;4.13;;
71048;SDS011;58704;53.358;-6.238;2023-05-24T02:14:34;8.70;;;4.00;;
71048;SDS011;58704;53.358;-6.238;2023-05-24T02:17:01;10.38;;;3.88;;
71048;SDS011;58704;53.358;-6.238;2023-05-24T02:19:27;13.13;;;4.23;;
71048;SDS011;58704;53.358;-6.238;2023-05-24T02:21:52;9.17;;;3.80;;
71048;SDS011;58704;53.358;-6.238;2023-05-24T02:24:18;12.97;;;4.27;;
71048;SDS011;58704;53.358;-6.238;2023-05-24T02:26:44;9.43;;;4.17;;
71048;SDS011;58704;53.358;-6.238;2023-05-24T02:29:09;7.07;;;3.83;;
71048;SDS011;58704;53.358;-6.238;2023-05-24T02:31:35;10.27;;;4.20;;
71048;SDS011;58704;53.358;-6.238;2023-05-24T02:34:00;14.13;;;4.70;;
71048;SDS011;58704;53.358;-6.238;2023-05-24T02:36:26;6.87;;;3.90;;
71048;SDS011;58704;53.358;-6.238;2023-05-24T02:38:52;8.93;;;3.93;;
71048;SDS011;58704;53.358;-6.238;2023-05-24T02:41:17;10.98;;;3.97;;
71048;SDS011;58704;53.358;-6.238;2023-05-24T02:43:46;11.80;;;4.40;;
71048;SDS011;58704;53.358;-6.238;2023-05-24T02:46:12;9.13;;;3.78;;
71048;SDS011;58704;53.358;-6.238;2023-05-24T02:48:38;9.18;;;4.00;;
71048;SDS011;58704;53.358;-6.238;2023-05-24T02:51:04;7.33;;;4.10;;
71048;SDS011;58704;53.358;-6.238;2023-05-24T02:53:29;8.73;;;4.03;;
71048;SDS011;58704;53.358;-6.238;2023-05-24T02:55:55;13.48;;;4.13;;
71048;SDS011;58704;53.358;-6.238;2023-05-24T02:58:21;10.57;;;4.55;;
71048;SDS011;58704;53.358;-6.238;2023-05-24T03:00:47;10.20;;;3.97;;
71048;SDS011;58704;53.358;-6.238;2023-05-24T03:03:12;11.88;;;4.00;;
71048;SDS011;58704;53.358;-6.238;2023-05-24T03:05:38;9.27;;;4.17;;
71048;SDS011;58704;53.358;-6.238;2023-05-24T03:08:03;11.43;;;4.50;;
71048;SDS011;58704;53.358;-6.238;2023-05-24T03:10:28;10.70;;;4.20;;
71048;SDS011;58704;53.358;-6.238;2023-05-24T03:12:54;11.32;;;4.45;;
71048;SDS011;58704;53.358;-6.238;2023-05-24T03:15:19;10.03;;;4.17;;
71048;SDS011;58704;53.358;-6.238;2023-05-24T03:17:45;6.67;;;3.73;;
71048;SDS011;58704;53.358;-6.238;2023-05-24T03:20:10;9.83;;;3.90;;
71048;SDS011;58704;53.358;-6.238;2023-05-24T03:22:36;8.03;;;4.23;;
71048;SDS011;58704;53.358;-6.238;2023-05-24T03:25:01;9.40;;;4.07;;
71048;SDS011;58704;53.358;-6.238;2023-05-24T03:27:27;10.23;;;3.70;;
71048;SDS011;58704;53.358;-6.238;2023-05-24T03:29:52;9.18;;;4.75;;
71048;SDS011;58704;53.358;-6.238;2023-05-24T03:32:18;10.83;;;4.17;;
71048;SDS011;58704;53.358;-6.238;2023-05-24T03:34:43;14.40;;;5.07;;
71048;SDS011;58704;53.358;-6.238;2023-05-24T03:37:08;12.20;;;4.30;;
71048;SDS011;58704;53.358;-6.238;2023-05-24T03:39:34;10.32;;;4.00;;
71048;SDS011;58704;53.358;-6.238;2023-05-24T03:41:59;11.70;;;4.33;;
71048;SDS011;58704;53.358;-6.238;2023-05-24T03:44:25;8.40;;;4.27;;
71048;SDS011;58704;53.358;-6.238;2023-05-24T03:46:50;12.13;;;4.20;;
71048;SDS011;58704;53.358;-6.238;2023-05-24T03:49:15;13.38;;;4.20;;
71048;SDS011;58704;53.358;-6.238;2023-05-24T03:51:41;9.87;;;4.47;;
71048;SDS011;58704;53.358;-6.238;2023-05-24T03:54:06;9.13;;;3.83;;
71048;SDS011;58704;53.358;-6.238;2023-05-24T03:56:32;13.10;;;4.00;;
71048;SDS011;58704;53.358;-6.238;2023-05-24T03:58:57;12.77;;;4.30;;
71048;SDS011;58704;53.358;-6.238;2023-05-24T04:01:24;12.17;;;4.40;;
71048;SDS011;58704;53.358;-6.238;2023-05-24T04:03:50;12.70;;;4.25;;
71048;SDS011;58704;53.358;-6.238;2023-05-24T04:06:16;8.63;;;4.28;;
71048;SDS011;58704;53.358;-6.238;2023-05-24T04:08:42;10.00;;;3.40;;
71048;SDS011;58704;53.358;-6.238;2023-05-24T04:11:08;12.50;;;4.50;;
71048;SDS011;58704;53.358;-6.238;2023-05-24T04:13:33;9.40;;;3.93;;
71048;SDS011;58704;53.358;-6.238;2023-05-24T04:15:58;8.37;;;3.97;;
71048;SDS011;58704;53.358;-6.238;2023-05-24T04:18:24;7.05;;;3.35;;
71048;SDS011;58704;53.358;-6.238;2023-05-24T04:20:49;10.97;;;3.80;;
71048;SDS011;58704;53.358;-6.238;2023-05-24T04:23:15;8.33;;;3.47;;
71048;SDS011;58704;53.358;-6.238;2023-05-24T04:25:41;13.48;;;4.78;;
71048;SDS011;58704;53.358;-6.238;2023-05-24T04:28:06;11.27;;;4.43;;
71048;SDS011;58704;53.358;-6.238;2023-05-24T04:30:32;10.77;;;4.20;;
71048;SDS011;58704;53.358;-6.238;2023-05-24T04:32:57;10.57;;;4.17;;
71048;SDS011;58704;53.358;-6.238;2023-05-24T04:35:23;9.83;;;4.40;;
71048;SDS011;58704;53.358;-6.238;2023-05-24T04:37:52;9.23;;;4.00;;
71048;SDS011;58704;53.358;-6.238;2023-05-24T04:40:17;13.27;;;4.97;;
71048;SDS011;58704;53.358;-6.238;2023-05-24T04:42:46;10.17;;;4.47;;
71048;SDS011;58704;53.358;-6.238;2023-05-24T04:45:12;10.15;;;5.00;;
71048;SDS011;58704;53.358;-6.238;2023-05-24T04:47:37;13.13;;;4.80;;
71048;SDS011;58704;53.358;-6.238;2023-05-24T04:50:06;11.93;;;4.23;;
71048;SDS011;58704;53.358;-6.238;2023-05-24T04:52:33;10.38;;;4.10;;
71048;SDS011;58704;53.358;-6.238;2023-05-24T04:55:00;9.05;;;4.18;;
71048;SDS011;58704;53.358;-6.238;2023-05-24T04:57:26;11.75;;;4.47;;
71048;SDS011;58704;53.358;-6.238;2023-05-24T04:59:52;16.40;;;5.03;;
71048;SDS011;58704;53.358;-6.238;2023-05-24T05:02:17;7.90;;;3.87;;
71048;SDS011;58704;53.358;-6.238;2023-05-24T05:04:43;10.90;;;4.43;;
71048;SDS011;58704;53.358;-6.238;2023-05-24T05:07:08;9.10;;;3.80;;
71048;SDS011;58704;53.358;-6.238;2023-05-24T05:09:34;9.25;;;3.83;;
71048;SDS011;58704;53.358;-6.238;2023-05-24T05:11:59;11.10;;;4.10;;
71048;SDS011;58704;53.358;-6.238;2023-05-24T05:14:25;10.20;;;4.13;;
71048;SDS011;58704;53.358;-6.238;2023-05-24T05:16:50;14.13;;;5.13;;
71048;SDS011;58704;53.358;-6.238;2023-05-24T05:19:16;10.33;;;4.07;;
71048;SDS011;58704;53.358;-6.238;2023-05-24T05:21:41;12.60;;;4.23;;
71048;SDS011;58704;53.358;-6.238;2023-05-24T05:24:06;10.60;;;4.47;;
71048;SDS011;58704;53.358;-6.238;2023-05-24T05:26:32;13.60;;;4.78;;
71048;SDS011;58704;53.358;-6.238;2023-05-24T05:28:58;12.43;;;5.82;;
71048;SDS011;58704;53.358;-6.238;2023-05-24T05:31:23;11.43;;;4.47;;
71048;SDS011;58704;53.358;-6.238;2023-05-24T05:33:49;12.60;;;4.63;;
71048;SDS011;58704;53.358;-6.238;2023-05-24T05:36:15;18.38;;;5.18;;
71048;SDS011;58704;53.358;-6.238;2023-05-24T05:38:41;16.95;;;5.50;;
71048;SDS011;58704;53.358;-6.238;2023-05-24T05:41:07;14.57;;;4.43;;
71048;SDS011;58704;53.358;-6.238;2023-05-24T05:43:32;13.77;;;3.93;;
71048;SDS011;58704;53.358;-6.238;2023-05-24T05:45:58;12.45;;;4.53;;
71048;SDS011;58704;53.358;-6.238;2023-05-24T05:48:24;12.90;;;5.20;;
71048;SDS011;58704;53.358;-6.238;2023-05-24T05:50:50;16.10;;;4.72;;
71048;SDS011;58704;53.358;-6.238;2023-05-24T05:53:15;12.80;;;4.80;;
71048;SDS011;58704;53.358;-6.238;2023-05-24T05:55:41;11.87;;;4.50;;
71048;SDS011;58704;53.358;-6.238;2023-05-24T05:58:06;13.27;;;4.70;;
71048;SDS011;58704;53.358;-6.238;2023-05-24T06:00:32;14.57;;;4.47;;
71048;SDS011;58704;53.358;-6.238;2023-05-24T06:02:57;11.70;;;4.37;;
71048;SDS011;58704;53.358;-6.238;2023-05-24T06:05:23;13.43;;;4.37;;
71048;SDS011;58704;53.358;-6.238;2023-05-24T06:07:48;12.40;;;4.65;;
71048;SDS011;58704;53.358;-6.238;2023-05-24T06:10:13;12.43;;;4.20;;
71048;SDS011;58704;53.358;-6.238;2023-05-24T06:12:39;16.33;;;4.27;;
71048;SDS011;58704;53.358;-6.238;2023-05-24T06:15:05;12.57;;;4.77;;
71048;SDS011;58704;53.358;-6.238;2023-05-24T06:17:32;8.70;;;4.10;;
71048;SDS011;58704;53.358;-6.238;2023-05-24T06:19:58;12.07;;;4.72;;
71048;SDS011;58704;53.358;-6.238;2023-05-24T06:22:24;14.20;;;4.18;;
71048;SDS011;58704;53.358;-6.238;2023-05-24T06:24:52;10.13;;;4.35;;
71048;SDS011;58704;53.358;-6.238;2023-05-24T06:27:17;12.47;;;4.13;;
71048;SDS011;58704;53.358;-6.238;2023-05-24T06:29:43;12.27;;;4.43;;
71048;SDS011;58704;53.358;-6.238;2023-05-24T06:32:09;10.73;;;4.20;;
71048;SDS011;58704;53.358;-6.238;2023-05-24T06:34:34;12.70;;;4.53;;
71048;SDS011;58704;53.358;-6.238;2023-05-24T06:36:59;15.85;;;4.00;;
71048;SDS011;58704;53.358;-6.238;2023-05-24T06:39:26;14.40;;;4.00;;
71048;SDS011;58704;53.358;-6.238;2023-05-24T06:41:51;10.73;;;4.43;;
71048;SDS011;58704;53.358;-6.238;2023-05-24T06:44:17;9.50;;;4.50;;
71048;SDS011;58704;53.358;-6.238;2023-05-24T06:46:43;9.75;;;3.95;;
71048;SDS011;58704;53.358;-6.238;2023-05-24T06:49:08;12.83;;;4.37;;
71048;SDS011;58704;53.358;-6.238;2023-05-24T06:51:34;9.33;;;3.70;;
71048;SDS011;58704;53.358;-6.238;2023-05-24T06:54:00;14.25;;;3.80;;
71048;SDS011;58704;53.358;-6.238;2023-05-24T06:56:26;9.98;;;4.30;;
71048;SDS011;58704;53.358;-6.238;2023-05-24T06:58:52;13.48;;;4.57;;
71048;SDS011;58704;53.358;-6.238;2023-05-24T07:01:20;11.37;;;4.10;;
71048;SDS011;58704;53.358;-6.238;2023-05-24T07:03:46;9.98;;;4.18;;
71048;SDS011;58704;53.358;-6.238;2023-05-24T07:06:11;17.67;;;4.67;;
71048;SDS011;58704;53.358;-6.238;2023-05-24T07:08:38;9.82;;;4.22;;
71048;SDS011;58704;53.358;-6.238;2023-05-24T07:11:05;11.02;;;3.83;;
71048;SDS011;58704;53.358;-6.238;2023-05-24T07:13:31;14.32;;;4.30;;
71048;SDS011;58704;53.358;-6.238;2023-05-24T07:15:57;19.70;;;5.20;;
71048;SDS011;58704;53.358;-6.238;2023-05-24T07:18:22;11.45;;;4.32;;
71048;SDS011;58704;53.358;-6.238;2023-05-24T07:20:48;13.27;;;4.00;;
71048;SDS011;58704;53.358;-6.238;2023-05-24T07:23:13;13.10;;;4.50;;
71048;SDS011;58704;53.358;-6.238;2023-05-24T07:25:39;13.07;;;4.63;;
71048;SDS011;58704;53.358;-6.238;2023-05-24T07:28:04;11.00;;;3.80;;
71048;SDS011;58704;53.358;-6.238;2023-05-24T07:30:31;13.93;;;4.13;;
71048;SDS011;58704;53.358;-6.238;2023-05-24T07:32:56;12.27;;;4.20;;
71048;SDS011;58704;53.358;-6.238;2023-05-24T07:35:22;6.53;;;3.80;;
71048;SDS011;58704;53.358;-6.238;2023-05-24T07:37:48;13.20;;;4.50;;
71048;SDS011;58704;53.358;-6.238;2023-05-24T07:40:13;8.70;;;3.55;;
71048;SDS011;58704;53.358;-6.238;2023-05-24T07:42:39;11.57;;;3.90;;
71048;SDS011;58704;53.358;-6.238;2023-05-24T07:45:05;10.45;;;4.75;;
71048;SDS011;58704;53.358;-6.238;2023-05-24T07:47:31;12.43;;;4.70;;
71048;SDS011;58704;53.358;-6.238;2023-05-24T07:49:56;10.35;;;4.60;;
71048;SDS011;58704;53.358;-6.238;2023-05-24T07:52:22;10.67;;;4.30;;
71048;SDS011;58704;53.358;-6.238;2023-05-24T07:54:48;13.02;;;4.53;;
71048;SDS011;58704;53.358;-6.238;2023-05-24T07:57:13;12.57;;;4.20;;
71048;SDS011;58704;53.358;-6.238;2023-05-24T07:59:39;11.80;;;3.93;;
71048;SDS011;58704;53.358;-6.238;2023-05-24T08:02:05;10.82;;;4.35;;
71048;SDS011;58704;53.358;-6.238;2023-05-24T08:04:30;18.03;;;4.23;;
71048;SDS011;58704;53.358;-6.238;2023-05-24T08:06:59;10.82;;;3.85;;
71048;SDS011;58704;53.358;-6.238;2023-05-24T08:09:27;10.13;;;4.28;;
71048;SDS011;58704;53.358;-6.238;2023-05-24T08:11:54;8.05;;;3.45;;
71048;SDS011;58704;53.358;-6.238;2023-05-24T08:14:20;11.50;;;3.40;;
71048;SDS011;58704;53.358;-6.238;2023-05-24T08:16:46;17.48;;;3.75;;
71048;SDS011;58704;53.358;-6.238;2023-05-24T08:19:11;16.13;;;3.70;;
71048;SDS011;58704;53.358;-6.238;2023-05-24T08:21:37;12.30;;;4.23;;
71048;SDS011;58704;53.358;-6.238;2023-05-24T08:24:02;13.60;;;3.17;;
71048;SDS011;58704;53.358;-6.238;2023-05-24T08:26:28;12.03;;;3.73;;
71048;SDS011;58704;53.358;-6.238;2023-05-24T08:28:53;10.10;;;2.80;;
71048;SDS011;58704;53.358;-6.238;2023-05-24T08:31:19;12.70;;;3.38;;
71048;SDS011;58704;53.358;-6.238;2023-05-24T08:33:46;15.50;;;3.53;;
71048;SDS011;58704;53.358;-6.238;2023-05-24T08:36:14;11.43;;;3.40;;
71048;SDS011;58704;53.358;-6.238;2023-05-24T08:38:40;8.77;;;3.28;;
71048;SDS011;58704;53.358;-6.238;2023-05-24T08:41:05;13.67;;;3.40;;
71048;SDS011;58704;53.358;-6.238;2023-05-24T08:43:32;9.97;;;3.40;;
71048;SDS011;58704;53.358;-6.238;2023-05-24T08:45:58;9.30;;;3.28;;
71048;SDS011;58704;53.358;-6.238;2023-05-24T08:48:24;14.20;;;3.63;;
71048;SDS011;58704;53.358;-6.238;2023-05-24T08:50:59;13.63;;;3.65;;
71048;SDS011;58704;53.358;-6.238;2023-05-24T08:53:43;9.77;;;3.15;;
71048;SDS011;58704;53.358;-6.238;2023-05-24T08:56:13;12.73;;;3.88;;
71048;SDS011;58704;53.358;-6.238;2023-05-24T08:58:41;13.40;;;3.10;;
71048;SDS011;58704;53.358;-6.238;2023-05-24T09:01:07;12.45;;;3.65;;
71048;SDS011;58704;53.358;-6.238;2023-05-24T09:03:33;11.43;;;3.53;;
71048;SDS011;58704;53.358;-6.238;2023-05-24T09:06:00;11.32;;;4.05;;
71048;SDS011;58704;53.358;-6.238;2023-05-24T09:08:27;12.47;;;3.73;;
71048;SDS011;58704;53.358;-6.238;2023-05-24T09:10:53;12.80;;;3.45;;
71048;SDS011;58704;53.358;-6.238;2023-05-24T09:13:19;15.63;;;4.07;;
71048;SDS011;58704;53.358;-6.238;2023-05-24T09:15:47;13.13;;;3.83;;
71048;SDS011;58704;53.358;-6.238;2023-05-24T09:18:12;10.60;;;3.60;;
71048;SDS011;58704;53.358;-6.238;2023-05-24T09:20:38;10.70;;;4.10;;
71048;SDS011;58704;53.358;-6.238;2023-05-24T09:23:03;13.87;;;3.87;;
71048;SDS011;58704;53.358;-6.238;2023-05-24T09:25:30;8.73;;;3.72;;
71048;SDS011;58704;53.358;-6.238;2023-05-24T09:27:56;10.80;;;3.47;;
71048;SDS011;58704;53.358;-6.238;2023-05-24T09:30:21;8.90;;;2.73;;
71048;SDS011;58704;53.358;-6.238;2023-05-24T09:32:57;8.38;;;3.45;;
71048;SDS011;58704;53.358;-6.238;2023-05-24T09:35:23;14.07;;;3.97;;
71048;SDS011;58704;53.358;-6.238;2023-05-24T09:37:52;10.38;;;3.47;;
71048;SDS011;58704;53.358;-6.238;2023-05-24T09:40:19;8.95;;;3.42;;
71048;SDS011;58704;53.358;-6.238;2023-05-24T09:42:45;9.80;;;3.15;;
71048;SDS011;58704;53.358;-6.238;2023-05-24T09:45:10;12.07;;;3.50;;
71048;SDS011;58704;53.358;-6.238;2023-05-24T09:47:37;14.68;;;3.63;;
71048;SDS011;58704;53.358;-6.238;2023-05-24T09:50:10;14.77;;;3.55;;
71048;SDS011;58704;53.358;-6.238;2023-05-24T09:52:39;10.48;;;3.42;;
71048;SDS011;58704;53.358;-6.238;2023-05-24T09:55:17;10.90;;;3.87;;
71048;SDS011;58704;53.358;-6.238;2023-05-24T09:57:44;12.38;;;3.80;;
71048;SDS011;58704;53.358;-6.238;2023-05-24T10:00:14;12.13;;;3.78;;
71048;SDS011;58704;53.358;-6.238;2023-05-24T10:02:41;11.43;;;3.42;;
71048;SDS011;58704;53.358;-6.238;2023-05-24T10:05:09;9.80;;;3.67;;
71048;SDS011;58704;53.358;-6.238;2023-05-24T10:07:36;15.80;;;3.80;;
71048;SDS011;58704;53.358;-6.238;2023-05-24T10:10:03;10.00;;;3.78;;
71048;SDS011;58704;53.358;-6.238;2023-05-24T10:12:29;12.32;;;3.83;;
71048;SDS011;58704;53.358;-6.238;2023-05-24T10:14:55;10.60;;;3.87;;
71048;SDS011;58704;53.358;-6.238;2023-05-24T10:17:21;12.87;;;3.87;;
71048;SDS011;58704;53.358;-6.238;2023-05-24T10:19:47;12.77;;;3.42;;
71048;SDS011;58704;53.358;-6.238;2023-05-24T10:22:12;11.93;;;4.00;;
71048;SDS011;58704;53.358;-6.238;2023-05-24T10:24:38;12.30;;;4.47;;
71048;SDS011;58704;53.358;-6.238;2023-05-24T10:27:08;13.30;;;3.83;;
71048;SDS011;58704;53.358;-6.238;2023-05-24T10:32:11;16.88;;;4.53;;
71048;SDS011;58704;53.358;-6.238;2023-05-24T10:34:38;14.07;;;4.32;;
71048;SDS011;58704;53.358;-6.238;2023-05-24T10:37:05;14.13;;;3.80;;
71048;SDS011;58704;53.358;-6.238;2023-05-24T10:39:31;17.93;;;4.63;;
71048;SDS011;58704;53.358;-6.238;2023-05-24T10:42:00;16.50;;;3.72;;
71048;SDS011;58704;53.358;-6.238;2023-05-24T10:44:27;13.70;;;4.28;;
71048;SDS011;58704;53.358;-6.238;2023-05-24T10:49:59;18.83;;;5.10;;
71048;SDS011;58704;53.358;-6.238;2023-05-24T10:52:34;12.70;;;4.05;;
71048;SDS011;58704;53.358;-6.238;2023-05-24T10:57:29;18.20;;;4.70;;
71048;SDS011;58704;53.358;-6.238;2023-05-24T11:00:14;17.10;;;4.73;;
71048;SDS011;58704;53.358;-6.238;2023-05-24T11:02:49;16.42;;;4.15;;
71048;SDS011;58704;53.358;-6.238;2023-05-24T11:08:10;13.57;;;4.18;;
71048;SDS011;58704;53.358;-6.238;2023-05-24T11:10:35;14.63;;;4.60;;
71048;SDS011;58704;53.358;-6.238;2023-05-24T11:13:01;14.33;;;4.63;;
71048;SDS011;58704;53.358;-6.238;2023-05-24T11:15:28;13.48;;;4.28;;
71048;SDS011;58704;53.358;-6.238;2023-05-24T11:20:33;13.57;;;3.80;;
71048;SDS011;58704;53.358;-6.238;2023-05-24T11:23:01;12.47;;;3.70;;
71048;SDS011;58704;53.358;-6.238;2023-05-24T11:25:27;16.55;;;4.15;;
71048;SDS011;58704;53.358;-6.238;2023-05-24T11:27:53;12.65;;;3.75;;
71048;SDS011;58704;53.358;-6.238;2023-05-24T11:30:22;16.05;;;4.28;;
71048;SDS011;58704;53.358;-6.238;2023-05-24T11:32:47;16.02;;;4.05;;
71048;SDS011;58704;53.358;-6.238;2023-05-24T11:35:13;12.17;;;4.33;;
71048;SDS011;58704;53.358;-6.238;2023-05-24T11:37:40;11.85;;;4.75;;
71048;SDS011;58704;53.358;-6.238;2023-05-24T11:40:06;19.27;;;4.05;;
71048;SDS011;58704;53.358;-6.238;2023-05-24T11:42:34;16.87;;;4.60;;
71048;SDS011;58704;53.358;-6.238;2023-05-24T11:45:02;11.00;;;3.80;;
71048;SDS011;58704;53.358;-6.238;2023-05-24T11:47:28;14.35;;;4.63;;
71048;SDS011;58704;53.358;-6.238;2023-05-24T11:49:54;10.27;;;4.33;;
71048;SDS011;58704;53.358;-6.238;2023-05-24T11:52:19;13.40;;;4.63;;
71048;SDS011;58704;53.358;-6.238;2023-05-24T11:54:45;11.43;;;4.47;;
71048;SDS011;58704;53.358;-6.238;2023-05-24T11:57:11;18.40;;;4.23;;
71048;SDS011;58704;53.358;-6.238;2023-05-24T11:59:36;11.18;;;4.03;;
71048;SDS011;58704;53.358;-6.238;2023-05-24T12:02:03;17.85;;;4.93;;
71048;SDS011;58704;53.358;-6.238;2023-05-24T12:04:30;13.85;;;4.05;;
71048;SDS011;58704;53.358;-6.238;2023-05-24T12:06:57;12.90;;;4.63;;
71048;SDS011;58704;53.358;-6.238;2023-05-24T12:09:22;13.17;;;4.23;;
71048;SDS011;58704;53.358;-6.238;2023-05-24T12:11:48;14.10;;;3.83;;
71048;SDS011;58704;53.358;-6.238;2023-05-24T12:14:19;10.43;;;4.10;;
71048;SDS011;58704;53.358;-6.238;2023-05-24T12:16:57;12.30;;;3.80;;
71048;SDS011;58704;53.358;-6.238;2023-05-24T12:19:23;14.25;;;4.80;;
71048;SDS011;58704;53.358;-6.238;2023-05-24T12:21:50;12.02;;;4.50;;
71048;SDS011;58704;53.358;-6.238;2023-05-24T12:24:22;12.90;;;4.28;;
71048;SDS011;58704;53.358;-6.238;2023-05-24T12:26:48;11.67;;;4.23;;
71048;SDS011;58704;53.358;-6.238;2023-05-24T12:29:15;14.70;;;4.50;;
71048;SDS011;58704;53.358;-6.238;2023-05-24T12:31:42;12.85;;;4.43;;
71048;SDS011;58704;53.358;-6.238;2023-05-24T12:34:11;13.43;;;4.75;;
71048;SDS011;58704;53.358;-6.238;2023-05-24T12:36:38;14.23;;;4.30;;
71048;SDS011;58704;53.358;-6.238;2023-05-24T12:41:58;16.10;;;4.22;;
71048;SDS011;58704;53.358;-6.238;2023-05-24T12:44:26;12.55;;;4.35;;
71048;SDS011;58704;53.358;-6.238;2023-05-24T12:46:53;12.88;;;4.35;;
71048;SDS011;58704;53.358;-6.238;2023-05-24T12:49:19;12.48;;;3.78;;
71048;SDS011;58704;53.358;-6.238;2023-05-24T12:51:45;17.43;;;4.50;;
71048;SDS011;58704;53.358;-6.238;2023-05-24T12:54:10;14.33;;;4.57;;
71048;SDS011;58704;53.358;-6.238;2023-05-24T12:56:35;13.43;;;4.30;;
71048;SDS011;58704;53.358;-6.238;2023-05-24T12:59:02;12.40;;;4.50;;
71048;SDS011;58704;53.358;-6.238;2023-05-24T13:01:27;13.27;;;4.83;;
71048;SDS011;58704;53.358;-6.238;2023-05-24T13:03:54;10.48;;;4.22;;
71048;SDS011;58704;53.358;-6.238;2023-05-24T13:06:19;15.40;;;4.40;;
71048;SDS011;58704;53.358;-6.238;2023-05-24T13:08:44;15.93;;;4.28;;
71048;SDS011;58704;53.358;-6.238;2023-05-24T13:11:10;12.67;;;4.20;;
71048;SDS011;58704;53.358;-6.238;2023-05-24T13:13:37;13.13;;;4.20;;
71048;SDS011;58704;53.358;-6.238;2023-05-24T13:16:03;13.90;;;4.37;;
71048;SDS011;58704;53.358;-6.238;2023-05-24T13:18:32;15.18;;;4.95;;
71048;SDS011;58704;53.358;-6.238;2023-05-24T13:20:58;12.50;;;4.00;;
71048;SDS011;58704;53.358;-6.238;2023-05-24T13:23:25;17.63;;;4.60;;
71048;SDS011;58704;53.358;-6.238;2023-05-24T13:25:51;13.00;;;4.47;;
71048;SDS011;58704;53.358;-6.238;2023-05-24T13:28:17;13.70;;;4.40;;
71048;SDS011;58704;53.358;-6.238;2023-05-24T13:30:43;15.73;;;4.47;;
71048;SDS011;58704;53.358;-6.238;2023-05-24T13:33:08;16.80;;;4.83;;
71048;SDS011;58704;53.358;-6.238;2023-05-24T13:35:34;14.53;;;4.97;;
71048;SDS011;58704;53.358;-6.238;2023-05-24T13:37:59;15.23;;;4.37;;
71048;SDS011;58704;53.358;-6.238;2023-05-24T13:40:25;14.20;;;4.63;;
71048;SDS011;58704;53.358;-6.238;2023-05-24T13:42:51;11.53;;;4.50;;
71048;SDS011;58704;53.358;-6.238;2023-05-24T13:45:16;14.77;;;4.60;;
71048;SDS011;58704;53.358;-6.238;2023-05-24T13:47:42;13.23;;;4.33;;
71048;SDS011;58704;53.358;-6.238;2023-05-24T13:50:07;14.90;;;4.57;;
71048;SDS011;58704;53.358;-6.238;2023-05-24T13:52:33;14.80;;;4.80;;
71048;SDS011;58704;53.358;-6.238;2023-05-24T13:55:01;20.97;;;5.53;;
71048;SDS011;58704;53.358;-6.238;2023-05-24T13:57:28;18.25;;;5.93;;
71048;SDS011;58704;53.358;-6.238;2023-05-24T13:59:54;21.30;;;5.80;;
71048;SDS011;58704;53.358;-6.238;2023-05-24T14:02:20;22.60;;;5.53;;
71048;SDS011;58704;53.358;-6.238;2023-05-24T14:04:47;22.30;;;5.43;;
71048;SDS011;58704;53.358;-6.238;2023-05-24T14:07:12;17.73;;;4.93;;
71048;SDS011;58704;53.358;-6.238;2023-05-24T14:09:39;20.48;;;5.35;;
71048;SDS011;58704;53.358;-6.238;2023-05-24T14:12:06;25.02;;;5.55;;
71048;SDS011;58704;53.358;-6.238;2023-05-24T14:14:32;29.25;;;6.03;;
71048;SDS011;58704;53.358;-6.238;2023-05-24T14:16:58;17.15;;;5.10;;
71048;SDS011;58704;53.358;-6.238;2023-05-24T14:19:23;21.73;;;5.60;;
71048;SDS011;58704;53.358;-6.238;2023-05-24T14:21:49;13.33;;;4.93;;
71048;SDS011;58704;53.358;-6.238;2023-05-24T14:24:14;13.40;;;4.65;;
71048;SDS011;58704;53.358;-6.238;2023-05-24T14:26:40;13.73;;;4.77;;
71048;SDS011;58704;53.358;-6.238;2023-05-24T14:29:06;19.02;;;5.45;;
71048;SDS011;58704;53.358;-6.238;2023-05-24T14:31:32;21.33;;;4.90;;
71048;SDS011;58704;53.358;-6.238;2023-05-24T14:33:59;12.48;;;4.75;;
71048;SDS011;58704;53.358;-6.238;2023-05-24T14:36:25;18.00;;;5.03;;
71048;SDS011;58704;53.358;-6.238;2023-05-24T14:38:51;18.67;;;5.43;;
71048;SDS011;58704;53.358;-6.238;2023-05-24T14:41:16;17.87;;;5.50;;
71048;SDS011;58704;53.358;-6.238;2023-05-24T14:43:41;17.03;;;5.43;;
71048;SDS011;58704;53.358;-6.238;2023-05-24T14:46:07;16.70;;;5.03;;
71048;SDS011;58704;53.358;-6.238;2023-05-24T14:48:33;18.13;;;5.05;;
71048;SDS011;58704;53.358;-6.238;2023-05-24T14:50:59;18.35;;;4.75;;